Time;durP1;ratioP1;P1;durP2;ratioP2;P2;SDS_P1;SDS_P2;PMS_P1;PMS_P2;Temp;Humidity;BMP_temperature;BMP_pressure;BME280_temperature;BME280_humidity;BME280_pressure;Samples;Min_cycle;Max_cycle;Signal;HPM_P1;HPM_P2
2023/05/03 00:01:42;;;;;;;8.10;2.00;;;5.90;99.90;;;;;;12487562;28;20111;-39
2023/05/03 00:07:45;;;;;;;5.90;1.80;;;5.60;99.90;;;;;;12485423;28;20081;-40
2023/05/03 00:13:47;;;;;;;6.35;1.85;;;5.60;99.90;;;;;;12491765;28;20596;-39
2023/05/03 00:19:49;;;;;;;7.68;2.50;;;5.60;99.90;;;;;;12474539;28;20087;-40
2023/05/03 00:25:55;;;;;;;4.38;1.77;;;5.60;99.90;;;;;;12475093;28;20152;-39
2023/05/03 00:31:58;;;;;;;8.10;2.25;;;5.60;99.90;;;;;;12490412;28;20084;-40
2023/05/03 00:38:00;;;;;;;3.25;1.45;;;5.90;99.90;;;;;;12468102;28;20391;-39
2023/05/03 00:44:02;;;;;;;8.20;1.92;;;5.70;99.90;;;;;;12485191;28;20053;-39
2023/05/03 00:50:06;;;;;;;7.80;1.77;;;6.00;99.90;;;;;;12465147;28;20103;-39
2023/05/03 00:56:08;;;;;;;4.15;1.60;;;5.90;99.90;;;;;;12446039;28;20402;-39
2023/05/03 01:02:10;;;;;;;3.67;1.70;;;6.00;99.90;;;;;;12439682;28;20077;-39
2023/05/03 01:08:42;;;;;;;7.07;1.70;;;5.80;99.90;;;;;;12446954;28;20049;-38
2023/05/03 01:15:10;;;;;;;5.30;1.50;;;5.70;99.90;;;;;;12438983;28;20042;-39
2023/05/03 01:21:13;;;;;;;5.53;1.60;;;5.40;99.90;;;;;;12491563;28;20045;-39
2023/05/03 01:27:15;;;;;;;5.72;1.80;;;4.90;99.90;;;;;;12490130;28;20049;-38
2023/05/03 01:33:29;;;;;;;3.80;1.85;;;5.00;99.90;;;;;;12486633;28;20049;-39
2023/05/03 01:39:39;;;;;;;5.67;1.70;;;5.30;99.90;;;;;;12484455;28;20040;-37
2023/05/03 01:45:42;;;;;;;7.95;1.80;;;5.30;99.90;;;;;;12439412;28;20096;-39
2023/05/03 01:51:44;;;;;;;4.97;1.70;;;5.30;99.90;;;;;;12428706;28;20059;-39
2023/05/03 01:57:45;;;;;;;4.43;1.73;;;5.40;99.90;;;;;;12431734;28;20054;-39
2023/05/03 02:03:47;;;;;;;8.95;2.15;;;5.30;99.90;;;;;;12476121;28;20046;-38
2023/05/03 02:09:49;;;;;;;4.82;2.00;;;5.10;99.90;;;;;;12485690;28;20500;-38
2023/05/03 02:15:51;;;;;;;3.55;1.60;;;5.10;99.90;;;;;;12446588;28;20099;-37
2023/05/03 02:21:53;;;;;;;4.20;1.92;;;5.20;99.90;;;;;;12466426;28;20045;-38
2023/05/03 02:27:54;;;;;;;3.20;1.50;;;4.90;99.90;;;;;;12444245;28;20042;-39
2023/05/03 02:33:56;;;;;;;3.50;1.55;;;5.00;99.90;;;;;;12484356;28;20076;-39
2023/05/03 02:39:58;;;;;;;8.05;2.05;;;4.90;99.90;;;;;;12471137;28;20098;-38
2023/05/03 02:46:00;;;;;;;9.70;2.58;;;4.90;99.90;;;;;;12490282;28;20067;-39
2023/05/03 02:52:02;;;;;;;4.68;2.10;;;4.80;99.90;;;;;;12471208;28;20053;-38
2023/05/03 02:58:04;;;;;;;4.82;1.80;;;4.90;99.90;;;;;;12478613;28;20312;-38
2023/05/03 03:04:06;;;;;;;6.82;2.28;;;4.90;99.90;;;;;;12472209;28;20096;-38
2023/05/03 03:10:08;;;;;;;3.38;2.10;;;4.90;99.90;;;;;;12482523;28;20057;-39
2023/05/03 03:16:12;;;;;;;5.22;2.38;;;4.80;99.90;;;;;;12436483;28;20045;-38
2023/05/03 03:22:14;;;;;;;4.93;2.30;;;4.70;99.90;;;;;;12484531;28;20071;-37
2023/05/03 03:28:15;;;;;;;6.45;2.10;;;4.70;99.90;;;;;;12476002;28;20079;-39
2023/05/03 03:34:17;;;;;;;6.00;2.10;;;4.60;99.90;;;;;;12490998;28;20045;-38
2023/05/03 03:40:19;;;;;;;4.93;1.85;;;4.40;99.90;;;;;;12469196;28;20217;-37
2023/05/03 03:46:21;;;;;;;5.90;2.38;;;4.30;99.90;;;;;;12453296;28;20049;-37
2023/05/03 03:52:23;;;;;;;7.53;2.58;;;4.20;99.90;;;;;;12486270;28;20866;-39
2023/05/03 03:58:25;;;;;;;4.70;2.10;;;4.30;99.90;;;;;;12487025;28;20094;-38
2023/05/03 04:04:26;;;;;;;6.20;2.63;;;4.40;99.90;;;;;;12476368;28;20053;-38
2023/05/03 04:10:28;;;;;;;9.30;2.30;;;4.70;99.90;;;;;;12490478;28;20076;-38
2023/05/03 04:16:30;;;;;;;7.03;2.42;;;5.20;99.90;;;;;;12468417;28;20041;-38
2023/05/03 04:22:32;;;;;;;5.43;2.17;;;5.40;99.90;;;;;;12485572;28;20041;-38
2023/05/03 04:28:34;;;;;;;5.85;2.15;;;5.40;99.90;;;;;;12495846;28;20049;-38
2023/05/03 04:34:36;;;;;;;6.10;2.20;;;5.40;99.90;;;;;;12485993;28;20413;-39
2023/05/03 04:40:38;;;;;;;4.13;2.10;;;5.40;99.90;;;;;;12479761;28;20055;-38
2023/05/03 04:46:40;;;;;;;5.28;1.98;;;5.50;99.90;;;;;;12498257;28;20049;-38
2023/05/03 04:52:42;;;;;;;3.10;2.13;;;5.60;99.90;;;;;;12472506;28;20135;-37
2023/05/03 04:58:43;;;;;;;3.55;1.55;;;8.80;99.90;;;;;;12481489;28;20045;-38
2023/05/03 05:04:45;;;;;;;4.20;1.55;;;12.90;99.90;;;;;;12489574;28;20057;-38
2023/05/03 05:10:47;;;;;;;3.60;1.30;;;14.50;99.90;;;;;;12482329;28;20050;-38
2023/05/03 05:16:49;;;;;;;8.60;1.73;;;13.90;99.90;;;;;;12468648;28;20053;-39
2023/05/03 05:22:51;;;;;;;5.13;1.85;;;13.00;99.90;;;;;;12502538;28;20054;-38
2023/05/03 05:28:53;;;;;;;4.93;1.40;;;12.70;99.90;;;;;;12469857;28;20053;-37
2023/05/03 05:34:55;;;;;;;3.63;1.67;;;12.40;99.90;;;;;;12479822;28;20050;-38
2023/05/03 05:40:58;;;;;;;6.10;2.17;;;12.40;99.90;;;;;;12451234;28;20045;-38
2023/05/03 05:47:00;;;;;;;4.72;2.22;;;12.60;99.90;;;;;;12494710;28;20053;-37
2023/05/03 05:53:02;;;;;;;6.03;2.60;;;12.60;99.90;;;;;;12475203;28;20038;-38
2023/05/03 05:59:04;;;;;;;4.90;2.40;;;13.00;99.90;;;;;;12499204;28;20053;-37
2023/05/03 06:05:07;;;;;;;4.55;2.42;;;12.40;99.90;;;;;;12503727;28;20214;-37
2023/05/03 06:11:12;;;;;;;4.85;2.80;;;11.80;99.90;;;;;;12488783;28;20081;-39
2023/05/03 06:17:15;;;;;;;6.70;3.00;;;11.00;99.90;;;;;;12481987;28;20042;-38
2023/05/03 06:23:17;;;;;;;5.60;2.72;;;10.40;99.90;;;;;;12491889;28;20049;-37
2023/05/03 06:29:19;;;;;;;5.80;2.15;;;10.40;99.90;;;;;;12509533;28;20044;-37
2023/05/03 06:35:21;;;;;;;6.68;2.13;;;11.00;99.90;;;;;;12476357;28;20046;-38
2023/05/03 06:41:23;;;;;;;6.07;2.10;;;11.00;99.90;;;;;;12484236;28;20056;-38
2023/05/03 06:47:25;;;;;;;7.68;2.55;;;10.80;99.90;;;;;;12474652;28;20399;-39
2023/05/03 06:53:27;;;;;;;8.52;2.25;;;10.10;99.90;;;;;;12509568;28;20135;-37
2023/05/03 06:59:29;;;;;;;8.43;1.70;;;9.80;99.90;;;;;;12508334;28;20132;-38
2023/05/03 07:05:31;;;;;;;5.75;1.73;;;9.50;99.90;;;;;;12476143;28;20111;-39
2023/05/03 07:11:36;;;;;;;5.93;1.90;;;8.70;99.90;;;;;;12461450;28;20057;-38
2023/05/03 07:17:37;;;;;;;4.47;1.27;;;8.60;99.90;;;;;;12438645;28;20750;-38
2023/05/03 07:23:40;;;;;;;6.28;1.88;;;9.50;99.90;;;;;;12444444;28;20053;-38
2023/05/03 07:29:41;;;;;;;10.50;1.50;;;9.30;99.90;;;;;;12441416;28;20065;-38
2023/05/03 07:35:47;;;;;;;5.78;1.77;;;9.70;99.90;;;;;;12423928;28;20038;-39
2023/05/03 07:41:50;;;;;;;8.52;1.90;;;9.40;99.90;;;;;;12438525;28;20577;-38
2023/05/03 07:47:52;;;;;;;9.63;1.50;;;9.40;99.90;;;;;;12434606;28;20057;-38
2023/05/03 07:53:57;;;;;;;10.00;1.88;;;9.70;99.90;;;;;;12435425;28;20058;-39
2023/05/03 07:59:59;;;;;;;5.68;1.75;;;8.70;99.90;;;;;;12434084;28;20057;-39
2023/05/03 08:06:01;;;;;;;5.57;2.30;;;9.40;99.90;;;;;;12440669;28;20137;-38
2023/05/03 08:12:03;;;;;;;6.47;2.08;;;10.00;99.90;;;;;;12430743;28;20046;-39
2023/05/03 08:18:05;;;;;;;3.08;1.38;;;10.70;99.90;;;;;;12415335;28;20046;-38
2023/05/03 08:24:07;;;;;;;5.93;1.60;;;10.90;99.90;;;;;;12440447;28;20554;-40
2023/05/03 08:30:10;;;;;;;4.68;1.35;;;9.90;99.90;;;;;;12448753;28;20049;-39
2023/05/03 08:36:12;;;;;;;9.93;1.80;;;10.40;99.90;;;;;;12424037;28;20034;-38
2023/05/03 08:42:14;;;;;;;5.40;2.55;;;11.10;99.90;;;;;;12433684;28;20042;-39
2023/05/03 08:48:16;;;;;;;4.32;1.70;;;10.30;99.90;;;;;;12440795;28;20060;-39
2023/05/03 08:54:20;;;;;;;4.53;1.60;;;10.50;99.90;;;;;;12429070;28;20069;-38
2023/05/03 09:00:27;;;;;;;4.83;1.70;;;10.80;99.90;;;;;;12437317;28;20173;-38
2023/05/03 09:06:31;;;;;;;6.22;1.42;;;10.90;99.90;;;;;;12450609;28;20054;-40
2023/05/03 09:12:35;;;;;;;7.60;1.75;;;10.40;99.90;;;;;;12433405;28;20049;-38
2023/05/03 09:18:36;;;;;;;5.60;1.63;;;10.60;99.90;;;;;;12416769;28;20054;-39
2023/05/03 09:24:38;;;;;;;7.63;2.35;;;11.40;99.90;;;;;;12449064;28;20054;-38
2023/05/03 09:30:41;;;;;;;9.82;1.67;;;12.00;99.90;;;;;;12453453;28;20489;-40
2023/05/03 09:36:46;;;;;;;4.38;1.55;;;12.40;99.90;;;;;;12444114;28;20054;-39
2023/05/03 09:43:07;;;;;;;6.70;1.60;;;12.90;99.90;;;;;;12432009;28;20109;-39
2023/05/03 09:49:09;;;;;;;4.07;1.60;;;12.70;99.90;;;;;;12433131;28;20053;-39
2023/05/03 09:55:11;;;;;;;6.63;1.50;;;12.10;99.90;;;;;;12436015;28;20038;-39
2023/05/03 10:01:13;;;;;;;6.82;1.92;;;13.20;99.90;;;;;;12441591;28;20044;-41
2023/05/03 10:07:17;;;;;;;4.85;1.65;;;13.50;99.90;;;;;;12433784;28;20058;-38
2023/05/03 10:13:23;;;;;;;4.93;1.70;;;13.20;99.90;;;;;;12409275;28;20053;-39
2023/05/03 10:19:33;;;;;;;5.50;1.92;;;11.90;99.90;;;;;;12431059;28;20049;-39
2023/05/03 10:25:37;;;;;;;3.85;1.85;;;11.90;99.90;;;;;;12478512;28;20095;-39
2023/05/03 10:31:43;;;;;;;;;;;12.10;99.90;;;;;;12492913;28;20061;-38
2023/05/03 10:37:49;;;;;;;5.57;1.58;;;12.60;99.90;;;;;;12478791;28;19968;-40
2023/05/03 10:43:51;;;;;;;3.75;1.45;;;13.10;99.90;;;;;;12498171;28;20057;-39
2023/05/03 10:50:14;;;;;;;6.00;1.90;;;14.00;99.90;;;;;;12490204;28;20179;-40
2023/05/03 10:56:16;;;;;;;6.25;2.40;;;14.20;99.90;;;;;;12485961;28;20056;-39
2023/05/03 11:02:28;;;;;;;6.72;2.33;;;13.70;99.90;;;;;;12489563;28;20049;-39
2023/05/03 11:08:36;;;;;;;6.07;1.90;;;13.90;99.90;;;;;;12487086;28;20056;-38
2023/05/03 11:14:38;;;;;;;6.40;1.85;;;13.50;99.90;;;;;;12472242;28;20145;-39
2023/05/03 11:20:41;;;;;;;5.90;1.73;;;13.30;99.90;;;;;;12490700;28;21238;-38
2023/05/03 11:26:42;;;;;;;5.30;1.80;;;13.70;99.90;;;;;;12491504;28;20130;-39
2023/05/03 11:32:45;;;;;;;4.22;1.80;;;13.80;99.90;;;;;;12480232;28;20170;-40
2023/05/03 11:38:46;;;;;;;6.05;2.05;;;14.50;99.90;;;;;;12488358;28;20052;-40
2023/05/03 11:44:48;;;;;;;6.20;1.70;;;13.50;99.90;;;;;;12504149;28;20428;-40
2023/05/03 11:50:55;;;;;;;7.28;2.55;;;13.40;99.90;;;;;;12518799;28;20084;-40
2023/05/03 11:56:57;;;;;;;6.22;2.25;;;13.40;99.90;;;;;;12509972;28;20056;-40
2023/05/03 12:03:00;;;;;;;6.30;1.85;;;14.50;99.90;;;;;;12500701;28;20092;-39
2023/05/03 12:09:11;;;;;;;4.43;1.95;;;14.70;99.90;;;;;;12484049;28;20100;-40
2023/05/03 12:15:14;;;;;;;4.95;1.95;;;14.10;99.90;;;;;;12473699;28;20507;-39
2023/05/03 12:21:19;;;;;;;7.40;2.45;;;14.80;99.90;;;;;;12474133;28;20041;-40
2023/05/03 12:27:24;;;;;;;3.83;2.20;;;14.30;99.90;;;;;;12498085;28;20064;-40
2023/05/03 12:33:29;;;;;;;6.03;2.17;;;15.00;99.90;;;;;;12521850;28;20060;-40
2023/05/03 12:39:34;;;;;;;6.93;2.10;;;15.60;99.90;;;;;;12499777;28;20049;-39
2023/05/03 12:45:40;;;;;;;6.53;1.92;;;15.50;99.90;;;;;;12493829;28;20042;-40
2023/05/03 12:51:54;;;;;;;7.82;3.17;;;14.80;99.90;;;;;;12487133;28;20084;-39
2023/05/03 12:58:01;;;;;;;6.68;2.45;;;15.50;99.90;;;;;;12495620;28;20096;-39
2023/05/03 13:04:06;;;;;;;6.75;2.20;;;15.30;99.90;;;;;;12469996;28;20493;-41
2023/05/03 13:10:28;;;;;;;5.47;2.42;;;15.20;99.90;;;;;;12493746;28;20056;-39
2023/05/03 13:16:31;;;;;;;6.95;2.20;;;15.00;99.90;;;;;;12477836;28;20709;-39
2023/05/03 13:22:33;;;;;;;7.07;2.03;;;14.90;99.90;;;;;;12488526;28;20052;-41
2023/05/03 13:28:35;;;;;;;4.13;2.25;;;14.60;99.90;;;;;;12477647;28;20635;-39
2023/05/03 13:34:37;;;;;;;7.88;2.28;;;14.30;99.90;;;;;;12467157;28;20091;-39
2023/05/03 13:40:39;;;;;;;4.80;1.95;;;14.50;99.90;;;;;;12480049;28;20045;-38
2023/05/03 13:46:42;;;;;;;6.15;2.08;;;15.00;99.90;;;;;;12492088;28;20053;-39
2023/05/03 13:52:44;;;;;;;6.50;2.73;;;15.40;99.90;;;;;;12492965;28;20493;-38
2023/05/03 13:58:46;;;;;;;5.22;2.13;;;14.90;99.90;;;;;;12493579;28;20088;-39
2023/05/03 14:04:48;;;;;;;6.47;1.58;;;14.60;99.90;;;;;;12485583;28;20480;-38
2023/05/03 14:10:50;;;;;;;3.85;1.70;;;14.80;99.90;;;;;;12475650;28;20049;-39
2023/05/03 14:16:52;;;;;;;6.45;2.10;;;14.70;99.90;;;;;;12497470;28;20483;-39
2023/05/03 14:22:55;;;;;;;4.60;2.05;;;14.50;99.90;;;;;;12487636;28;20070;-40
2023/05/03 14:28:58;;;;;;;6.22;2.25;;;14.60;99.90;;;;;;12477627;28;20049;-40
2023/05/03 14:35:00;;;;;;;7.28;1.95;;;14.90;99.90;;;;;;12462308;28;20077;-41
2023/05/03 14:41:03;;;;;;;6.78;2.00;;;14.50;99.90;;;;;;12473566;28;20071;-37
2023/05/03 14:47:05;;;;;;;5.43;2.28;;;14.70;99.90;;;;;;12494919;28;20766;-38
2023/05/03 14:53:08;;;;;;;4.70;1.87;;;14.30;99.90;;;;;;12472238;28;20052;-39
2023/05/03 14:59:10;;;;;;;3.47;1.67;;;14.60;99.90;;;;;;12476244;28;20052;-38
2023/05/03 15:05:12;;;;;;;3.80;2.15;;;15.10;99.90;;;;;;12449200;28;20058;-40
2023/05/03 15:11:14;;;;;;;7.40;1.90;;;15.40;99.90;;;;;;12482710;28;20060;-39
2023/05/03 15:17:16;;;;;;;5.47;2.15;;;15.70;99.90;;;;;;12442187;28;20042;-40
2023/05/03 15:23:18;;;;;;;7.60;1.92;;;15.00;99.90;;;;;;12479091;28;20058;-38
2023/05/03 15:29:20;;;;;;;3.80;1.73;;;15.10;99.90;;;;;;12488877;28;20049;-39
2023/05/03 15:35:22;;;;;;;6.97;2.72;;;15.30;99.90;;;;;;12497939;28;20543;-38
2023/05/03 15:41:24;;;;;;;8.93;1.77;;;14.60;99.90;;;;;;12505164;28;20045;-39
2023/05/03 15:47:26;;;;;;;4.63;2.13;;;14.60;99.90;;;;;;12504180;28;20186;-38
2023/05/03 15:53:29;;;;;;;4.10;1.92;;;14.70;99.90;;;;;;12450837;28;20053;-39
2023/05/03 15:59:31;;;;;;;5.65;2.20;;;14.70;99.90;;;;;;12486187;28;20106;-39
2023/05/03 16:05:34;;;;;;;9.30;2.20;;;14.70;99.90;;;;;;12490753;28;20100;-39
2023/05/03 16:11:36;;;;;;;6.95;1.88;;;14.80;99.90;;;;;;12484072;28;20060;-39
2023/05/03 16:17:38;;;;;;;5.22;2.10;;;14.90;99.90;;;;;;12504761;28;20140;-39
2023/05/03 16:23:40;;;;;;;7.22;2.08;;;15.30;99.90;;;;;;12519266;28;20056;-38
2023/05/03 16:29:41;;;;;;;4.93;1.98;;;15.20;99.90;;;;;;12478714;28;20120;-39
2023/05/03 16:35:43;;;;;;;8.15;2.17;;;14.50;99.90;;;;;;12513849;28;20235;-38
2023/05/03 16:41:45;;;;;;;9.38;2.92;;;14.70;99.90;;;;;;12482061;28;20049;-38
2023/05/03 16:47:47;;;;;;;5.70;1.95;;;14.50;99.90;;;;;;12496769;28;20408;-38
2023/05/03 16:53:50;;;;;;;4.15;1.55;;;15.00;99.90;;;;;;12490286;28;20049;-39
2023/05/03 16:59:52;;;;;;;6.77;2.07;;;15.30;99.90;;;;;;12476258;28;20049;-41
2023/05/03 17:05:54;;;;;;;6.20;1.92;;;14.60;99.90;;;;;;12486609;28;20187;-39
2023/05/03 17:11:57;;;;;;;4.63;1.83;;;14.30;99.90;;;;;;12472699;28;20060;-40
2023/05/03 17:17:59;;;;;;;4.07;1.70;;;14.70;99.90;;;;;;12487898;28;20147;-39
2023/05/03 17:24:05;;;;;;;4.93;1.70;;;14.30;99.90;;;;;;12488722;28;20524;-39
2023/05/03 17:30:08;;;;;;;5.30;1.70;;;14.50;99.90;;;;;;12478893;28;20045;-39
2023/05/03 17:36:10;;;;;;;6.53;1.45;;;14.60;99.90;;;;;;12442798;28;20048;-40
2023/05/03 17:42:12;;;;;;;5.53;1.95;;;14.40;99.90;;;;;;12507862;28;20405;-40
2023/05/03 17:48:13;;;;;;;5.47;1.65;;;13.80;99.90;;;;;;12506521;28;20045;-39
2023/05/03 17:54:15;;;;;;;3.20;1.23;;;13.80;99.90;;;;;;12484238;28;20050;-38
2023/05/03 18:00:20;;;;;;;4.30;1.70;;;14.30;99.90;;;;;;12478565;28;20045;-39
2023/05/03 18:06:21;;;;;;;6.82;1.70;;;13.50;99.90;;;;;;12483195;28;20410;-39
2023/05/03 18:12:24;;;;;;;8.50;1.55;;;13.10;99.90;;;;;;12476153;28;20087;-39
2023/05/03 18:18:26;;;;;;;5.07;1.40;;;12.70;99.90;;;;;;12476579;28;20057;-38
2023/05/03 18:24:28;;;;;;;4.70;1.60;;;12.40;99.90;;;;;;12489321;28;20095;-39
2023/05/03 18:30:31;;;;;;;6.72;1.50;;;12.40;99.90;;;;;;12471439;28;20053;-38
2023/05/03 18:36:33;;;;;;;9.63;1.70;;;12.30;99.90;;;;;;12474628;28;20096;-38
2023/05/03 18:42:35;;;;;;;8.23;1.88;;;12.30;99.90;;;;;;12463066;28;20057;-38
2023/05/03 18:48:37;;;;;;;8.15;1.50;;;12.10;99.90;;;;;;12476247;28;20057;-39
2023/05/03 18:54:39;;;;;;;5.72;1.60;;;11.90;99.90;;;;;;12489228;28;20045;-39
2023/05/03 19:00:42;;;;;;;5.35;1.73;;;11.60;99.90;;;;;;12495022;28;20041;-39
2023/05/03 19:06:44;;;;;;;5.75;1.85;;;11.60;99.90;;;;;;12466851;28;20550;-40
2023/05/03 19:12:46;;;;;;;3.72;1.48;;;11.50;99.90;;;;;;12479726;28;20460;-39
2023/05/03 19:18:48;;;;;;;8.20;1.60;;;11.40;99.90;;;;;;12471216;28;20084;-35
2023/05/03 19:24:49;;;;;;;5.15;1.80;;;11.30;99.90;;;;;;12498185;28;20073;-36
2023/05/03 19:30:53;;;;;;;5.22;1.92;;;11.30;99.90;;;;;;12472950;28;20045;-35
2023/05/03 19:36:55;;;;;;;12.02;3.53;;;11.20;99.90;;;;;;12504247;28;20405;-36
2023/05/03 19:42:57;;;;;;;7.93;3.42;;;11.00;99.90;;;;;;12480603;28;20045;-36
2023/05/03 19:49:00;;;;;;;11.63;3.20;;;10.80;99.90;;;;;;12482526;28;20055;-35
2023/05/03 19:55:05;;;;;;;7.60;2.58;;;10.60;99.90;;;;;;12482658;28;20183;-35
2023/05/03 20:01:07;;;;;;;8.70;3.05;;;10.50;99.90;;;;;;12492947;28;20418;-35
2023/05/03 20:07:09;;;;;;;8.02;2.80;;;10.40;99.90;;;;;;12490594;28;20083;-35
2023/05/03 20:13:12;;;;;;;5.75;2.70;;;10.20;99.90;;;;;;12495120;28;20100;-36
2023/05/03 20:19:14;;;;;;;9.50;1.98;;;10.00;99.90;;;;;;12487350;28;20046;-35
2023/05/03 20:25:17;;;;;;;7.65;2.58;;;10.00;99.90;;;;;;12503187;28;20083;-35
2023/05/03 20:31:19;;;;;;;5.05;1.92;;;9.90;99.90;;;;;;12504467;28;20056;-36
2023/05/03 20:37:20;;;;;;;4.72;1.90;;;9.90;99.90;;;;;;12507023;28;20056;-35
2023/05/03 20:43:22;;;;;;;5.13;1.73;;;10.10;99.90;;;;;;12508472;28;20045;-35
2023/05/03 20:49:24;;;;;;;5.65;2.30;;;10.30;99.90;;;;;;12487000;28;20049;-36
2023/05/03 20:55:26;;;;;;;6.63;3.15;;;10.10;99.90;;;;;;12478062;28;20088;-35
2023/05/03 21:01:29;;;;;;;6.50;2.45;;;10.00;99.90;;;;;;12501457;28;20056;-36
2023/05/03 21:07:31;;;;;;;7.97;2.78;;;9.60;99.90;;;;;;12500854;28;20061;-36
2023/05/03 21:13:34;;;;;;;6.53;2.50;;;9.30;99.90;;;;;;12482024;28;20049;-36
2023/05/03 21:19:38;;;;;;;5.95;2.72;;;8.90;99.90;;;;;;12491234;28;20057;-36
2023/05/03 21:25:40;;;;;;;7.13;2.72;;;8.80;99.90;;;;;;12502690;28;20053;-35
2023/05/03 21:31:42;;;;;;;5.70;2.60;;;8.70;99.90;;;;;;12488551;28;20042;-35
2023/05/03 21:37:45;;;;;;;10.65;2.92;;;8.50;99.90;;;;;;12491453;28;20049;-35
2023/05/03 21:43:48;;;;;;;8.48;2.92;;;8.30;99.90;;;;;;12496561;28;20084;-36
2023/05/03 21:49:50;;;;;;;5.55;2.38;;;8.20;99.90;;;;;;12480022;28;20140;-35
2023/05/03 21:55:52;;;;;;;7.15;2.85;;;8.30;99.90;;;;;;12485553;28;20235;-37
2023/05/03 22:01:53;;;;;;;7.15;2.85;;;8.30;99.90;;;;;;12472265;28;20077;-36
2023/05/03 22:07:55;;;;;;;8.13;2.40;;;8.50;99.90;;;;;;12465535;28;20506;-36
2023/05/03 22:13:57;;;;;;;7.15;2.40;;;8.60;99.90;;;;;;12500746;28;20037;-35
2023/05/03 22:20:10;;;;;;;8.20;2.45;;;8.60;99.90;;;;;;12503065;28;20041;-36
2023/05/03 22:26:11;;;;;;;10.88;2.42;;;8.60;99.90;;;;;;12506379;28;20045;-35
2023/05/03 22:32:13;;;;;;;7.07;2.45;;;8.60;99.90;;;;;;12500801;28;20075;-36
2023/05/03 22:38:15;;;;;;;6.03;2.40;;;8.40;99.90;;;;;;12488022;28;20041;-36
2023/05/03 22:44:17;;;;;;;4.10;2.20;;;8.30;99.90;;;;;;12478063;28;20037;-36
2023/05/03 22:50:19;;;;;;;6.15;2.30;;;8.10;99.90;;;;;;12476418;28;20071;-35
2023/05/03 22:56:20;;;;;;;9.65;2.55;;;8.10;99.90;;;;;;12503911;28;20040;-37
2023/05/03 23:02:22;;;;;;;5.15;2.40;;;8.20;99.90;;;;;;12482877;28;20061;-35
2023/05/03 23:08:24;;;;;;;5.68;2.47;;;8.30;99.90;;;;;;12481489;28;20057;-36
2023/05/03 23:14:26;;;;;;;6.25;2.40;;;8.30;99.90;;;;;;12435017;28;20140;-35
2023/05/03 23:20:28;;;;;;;7.28;2.45;;;8.10;99.90;;;;;;12472219;28;20090;-36
2023/05/03 23:26:30;;;;;;;7.03;2.50;;;8.30;99.90;;;;;;12487996;28;20050;-35
2023/05/03 23:32:32;;;;;;;12.15;3.15;;;8.40;99.90;;;;;;12493116;28;20057;-36
2023/05/03 23:38:34;;;;;;;6.00;2.38;;;8.20;99.90;;;;;;12500133;28;20045;-35
2023/05/03 23:44:37;;;;;;;7.38;2.92;;;8.00;99.90;;;;;;12488824;28;20037;-36
2023/05/03 23:50:54;;;;;;;5.07;2.60;;;7.80;99.90;;;;;;12476735;28;20040;-36
2023/05/03 23:56:56;;;;;;;4.97;2.63;;;7.70;99.90;;;;;;12488823;28;20479;-36
